createdAt,value
2023-02-08T00:04:23.869Z,13.57
2023-02-08T00:07:05.142Z,13.98
2023-02-08T00:09:44.152Z,13.95
2023-02-08T00:15:36.555Z,13.20
2023-02-08T00:24:58.985Z,14.63
2023-02-08T00:27:40.861Z,14.90
2023-02-08T00:30:19.186Z,16.00
2023-02-08T00:33:03.781Z,16.15
2023-02-08T00:35:38.749Z,15.10
2023-02-08T00:38:14.510Z,16.05
2023-02-08T00:41:03.974Z,16.30
2023-02-08T00:43:47.427Z,17.70
2023-02-08T00:46:25.276Z,19.02
2023-02-08T00:49:07.083Z,19.30
2023-02-08T00:54:42.693Z,17.10
2023-02-08T00:57:25.483Z,22.40
2023-02-08T01:00:05.851Z,24.83
2023-02-08T01:02:45.984Z,29.15
2023-02-08T01:05:28.109Z,20.52
2023-02-08T01:08:08.569Z,20.27
2023-02-08T01:10:44.162Z,24.60
2023-02-08T01:13:25.579Z,20.05
2023-02-08T01:16:08.812Z,19.38
2023-02-08T01:18:49.746Z,20.40
2023-02-08T01:21:33.252Z,17.60
2023-02-08T01:24:14.662Z,13.17
2023-02-08T01:27:06.563Z,11.27
2023-02-08T01:29:51.269Z,11.32
2023-02-08T01:32:40.016Z,14.30
2023-02-08T01:35:42.678Z,13.53
2023-02-08T01:38:36.418Z,14.63
2023-02-08T01:41:17.347Z,14.67
2023-02-08T01:44:32.407Z,15.82
2023-02-08T01:50:01.643Z,11.23
2023-02-08T01:52:47.987Z,12.30
2023-02-08T01:58:10.789Z,12.40
2023-02-08T02:00:47.325Z,12.45
2023-02-08T02:03:23.761Z,11.93
2023-02-08T02:06:02.878Z,10.45
2023-02-08T02:08:40.448Z,9.68
2023-02-08T02:11:33.892Z,9.15
2023-02-08T02:14:13.811Z,9.70
2023-02-08T02:17:04.448Z,9.03
2023-02-08T02:20:05.879Z,9.77
2023-02-08T02:23:07.404Z,9.40
2023-02-08T02:26:05.014Z,9.35
2023-02-08T02:28:40.539Z,10.85
2023-02-08T02:32:06.147Z,9.18
2023-02-08T02:34:51.120Z,9.20
2023-02-08T02:37:50.020Z,9.97
2023-02-08T02:40:27.168Z,10.60
2023-02-08T02:43:42.668Z,9.90
2023-02-08T02:46:37.685Z,9.87
2023-02-08T02:49:23.030Z,8.70
2023-02-08T02:52:16.966Z,7.65
2023-02-08T02:55:03.869Z,8.30
2023-02-08T02:58:02.669Z,8.73
2023-02-08T03:03:38.880Z,6.45
2023-02-08T03:06:34.818Z,7.20
2023-02-08T03:09:47.910Z,6.32
2023-02-08T03:12:52.476Z,7.20
2023-02-08T03:16:03.690Z,7.38
2023-02-08T03:18:47.490Z,8.07
2023-02-08T03:21:35.909Z,8.77
2023-02-08T03:30:18.878Z,8.15
2023-02-08T03:33:22.503Z,7.63
2023-02-08T03:39:17.537Z,7.95
2023-02-08T03:42:15.370Z,8.05
2023-02-08T03:44:59.028Z,8.00
2023-02-08T03:47:56.926Z,8.18
2023-02-08T03:50:52.294Z,8.38
2023-02-08T03:53:55.394Z,9.45
2023-02-08T03:56:36.346Z,8.80
2023-02-08T03:59:32.402Z,8.75
2023-02-08T04:02:14.693Z,9.05
2023-02-08T04:04:54.290Z,10.00
2023-02-08T04:07:35.313Z,8.45
2023-02-08T04:10:27.480Z,8.75
2023-02-08T04:13:13.342Z,8.82
2023-02-08T04:15:50.508Z,9.03
2023-02-08T04:18:40.802Z,9.07
2023-02-08T04:21:20.960Z,8.73
2023-02-08T04:24:11.324Z,8.15
2023-02-08T04:26:51.394Z,8.65
2023-02-08T04:29:31.170Z,8.55
2023-02-08T04:32:13.153Z,9.05
2023-02-08T04:34:54.355Z,9.43
2023-02-08T04:37:30.457Z,9.18
2023-02-08T04:40:27.637Z,9.98
2023-02-08T04:43:06.301Z,8.93
2023-02-08T04:45:48.836Z,9.40
2023-02-08T04:48:28.959Z,9.38
2023-02-08T04:51:04.559Z,9.32
2023-02-08T04:53:48.586Z,8.82
2023-02-08T04:56:31.230Z,10.15
2023-02-08T04:59:31.405Z,8.55
2023-02-08T05:02:13.673Z,9.23
2023-02-08T05:04:50.487Z,10.52
2023-02-08T05:07:39.118Z,10.52
2023-02-08T05:10:32.249Z,10.82
2023-02-08T05:17:14.380Z,12.93
2023-02-08T05:19:51.714Z,11.45
2023-02-08T05:22:36.909Z,11.98
2023-02-08T05:25:21.012Z,11.67
2023-02-08T05:28:08.151Z,14.18
2023-02-08T05:30:58.812Z,10.15
2023-02-08T05:33:38.541Z,9.83
2023-02-08T05:36:24.497Z,10.93
2023-02-08T05:39:00.973Z,10.83
2023-02-08T05:41:36.461Z,10.43
2023-02-08T05:44:25.025Z,11.55
2023-02-08T05:47:13.589Z,10.77
2023-02-08T05:49:56.162Z,9.45
2023-02-08T06:01:38.008Z,11.52
2023-02-08T06:07:23.117Z,14.70
2023-02-08T06:10:01.756Z,12.82
2023-02-08T06:12:59.229Z,14.45
2023-02-08T06:15:39.551Z,31.27
2023-02-08T06:18:52.398Z,76.50
2023-02-08T06:21:28.684Z,43.03
2023-02-08T06:27:08.436Z,26.23
2023-02-08T06:29:51.702Z,23.73
2023-02-08T06:35:33.879Z,23.77
2023-02-08T06:38:15.829Z,22.73
2023-02-08T06:40:53.842Z,23.95
2023-02-08T06:43:44.097Z,20.13
2023-02-08T06:46:43.565Z,19.45
2023-02-08T06:49:22.785Z,20.77
2023-02-08T06:52:17.159Z,26.20
2023-02-08T06:55:02.967Z,26.95
2023-02-08T06:58:01.519Z,25.60
2023-02-08T07:00:58.361Z,24.50
2023-02-08T07:03:52.356Z,21.37
2023-02-08T07:06:52.679Z,20.95
2023-02-08T07:09:37.840Z,23.40
2023-02-08T07:15:14.331Z,21.58
2023-02-08T07:17:58.658Z,19.35
2023-02-08T07:20:49.882Z,21.05
2023-02-08T07:23:28.149Z,24.85
2023-02-08T07:26:16.233Z,37.23
2023-02-08T07:28:56.885Z,32.43
2023-02-08T07:31:41.117Z,35.13
2023-02-08T07:43:36.802Z,32.85
2023-02-08T07:46:25.443Z,23.90
2023-02-08T07:51:49.220Z,26.07
2023-02-08T07:54:41.193Z,34.95
2023-02-08T07:57:36.708Z,22.50
2023-02-08T08:00:43.325Z,46.97
2023-02-08T08:03:31.622Z,41.45
2023-02-08T08:06:23.318Z,50.85
2023-02-08T08:09:03.084Z,32.63
2023-02-08T08:11:40.015Z,32.95
2023-02-08T08:14:21.530Z,35.55
2023-02-08T08:17:07.010Z,29.23
2023-02-08T08:19:45.344Z,29.27
2023-02-08T08:22:22.145Z,29.75
2023-02-08T08:28:12.499Z,26.38
2023-02-08T08:37:04.266Z,26.80
2023-02-08T08:39:39.328Z,27.00
2023-02-08T08:42:16.092Z,25.65
2023-02-08T08:44:56.081Z,26.10
2023-02-08T08:47:32.781Z,26.65
2023-02-08T08:50:08.534Z,23.08
2023-02-08T08:52:47.241Z,22.10
2023-02-08T08:55:36.350Z,22.20
2023-02-08T08:58:13.045Z,23.92
2023-02-08T09:00:47.963Z,22.38
2023-02-08T09:03:24.152Z,22.10
2023-02-08T09:06:02.223Z,22.40
2023-02-08T09:11:30.238Z,23.02
2023-02-08T09:14:06.995Z,22.25
2023-02-08T09:16:49.482Z,21.45
2023-02-08T09:19:25.102Z,22.75
2023-02-08T09:22:01.039Z,25.15
2023-02-08T09:24:40.362Z,28.40
2023-02-08T09:27:16.711Z,24.55
2023-02-08T09:29:54.976Z,26.45
2023-02-08T09:32:40.182Z,25.23
2023-02-08T09:35:16.772Z,24.08
2023-02-08T09:37:51.182Z,24.35
2023-02-08T09:46:38.823Z,21.17
2023-02-08T09:49:17.833Z,23.02
2023-02-08T09:51:56.831Z,22.90
2023-02-08T09:54:31.483Z,23.00
2023-02-08T09:57:08.265Z,22.80
2023-02-08T09:59:45.418Z,19.70
2023-02-08T10:02:27.471Z,22.37
2023-02-08T10:05:06.864Z,20.83
2023-02-08T10:07:44.377Z,21.00
2023-02-08T10:10:21.849Z,24.27
2023-02-08T10:13:01.472Z,22.30
2023-02-08T10:15:39.896Z,21.30
2023-02-08T10:18:24.803Z,21.45
2023-02-08T10:21:20.659Z,23.65
2023-02-08T10:23:56.016Z,23.20
2023-02-08T10:26:37.684Z,23.37
2023-02-08T10:29:26.747Z,22.15
2023-02-08T10:32:07.642Z,22.17
2023-02-08T10:34:42.152Z,20.83
2023-02-08T10:37:23.689Z,21.90
2023-02-08T10:39:59.579Z,22.92
2023-02-08T10:42:36.599Z,23.97
2023-02-08T10:45:24.537Z,22.67
2023-02-08T10:48:04.867Z,24.87
2023-02-08T10:50:41.023Z,22.20
2023-02-08T10:59:01.065Z,25.15
2023-02-08T11:07:57.623Z,24.58
2023-02-08T11:10:38.073Z,25.00
2023-02-08T11:13:21.900Z,27.30
2023-02-08T11:15:59.273Z,26.00
2023-02-08T11:18:36.330Z,24.83
2023-02-08T11:21:13.807Z,22.55
2023-02-08T11:23:54.261Z,23.92
2023-02-08T11:26:36.664Z,24.35
2023-02-08T11:29:17.393Z,25.10
2023-02-08T11:32:06.079Z,25.33
2023-02-08T11:34:43.428Z,27.67
2023-02-08T11:37:23.525Z,26.63
2023-02-08T11:39:57.791Z,26.02
2023-02-08T11:42:38.441Z,25.48
2023-02-08T11:45:22.805Z,26.27
2023-02-08T11:51:03.142Z,25.10
2023-02-08T11:53:44.787Z,24.00
2023-02-08T11:56:28.040Z,24.50
2023-02-08T11:59:20.088Z,25.50
2023-02-08T12:02:02.913Z,24.15
2023-02-08T12:04:40.345Z,25.15
2023-02-08T12:07:22.329Z,25.83
2023-02-08T12:10:24.978Z,24.57
2023-02-08T12:13:10.293Z,25.52
2023-02-08T12:15:58.361Z,23.70
2023-02-08T12:18:45.930Z,24.25
2023-02-08T12:21:21.920Z,24.80
2023-02-08T12:23:58.033Z,26.50
2023-02-08T12:29:48.125Z,26.13
2023-02-08T12:32:52.718Z,27.77
2023-02-08T12:36:03.684Z,27.50
2023-02-08T12:39:18.502Z,26.45
2023-02-08T12:42:12.885Z,27.05
2023-02-08T12:44:57.425Z,21.15
2023-02-08T12:47:40.768Z,23.40
2023-02-08T12:50:21.175Z,25.90
2023-02-08T12:53:04.917Z,27.45
2023-02-08T12:55:50.190Z,26.88
2023-02-08T12:58:24.904Z,25.83
2023-02-08T13:01:03.884Z,28.05
2023-02-08T13:03:43.788Z,25.80
2023-02-08T13:06:20.487Z,27.50
2023-02-08T13:09:17.568Z,27.73
2023-02-08T13:15:07.057Z,23.38
2023-02-08T13:24:25.226Z,25.00
2023-02-08T13:27:03.512Z,27.23
2023-02-08T13:29:42.814Z,27.65
2023-02-08T13:32:22.306Z,29.02
2023-02-08T13:35:02.281Z,25.75
2023-02-08T13:37:38.972Z,29.73
2023-02-08T13:40:29.144Z,25.40
2023-02-08T13:43:09.673Z,28.90
2023-02-08T13:45:56.936Z,28.48
2023-02-08T13:48:44.484Z,27.88
2023-02-08T13:51:49.655Z,27.45
2023-02-08T13:54:26.076Z,26.67
2023-02-08T13:57:09.390Z,27.23
2023-02-08T13:59:47.259Z,27.25
2023-02-08T14:02:34.210Z,27.43
2023-02-08T14:05:05.651Z,27.23
2023-02-08T14:07:49.768Z,25.80
2023-02-08T14:10:37.280Z,25.40
2023-02-08T14:13:25.079Z,25.30
2023-02-08T14:16:19.952Z,24.67
2023-02-08T14:28:17.154Z,24.02
2023-02-08T14:31:08.689Z,26.00
2023-02-08T14:33:59.342Z,24.35
2023-02-08T14:39:50.762Z,32.85
2023-02-08T14:43:06.056Z,25.13
2023-02-08T14:48:52.860Z,28.15
2023-02-08T14:51:32.943Z,28.85
2023-02-08T14:54:19.432Z,29.25
2023-02-08T14:57:02.729Z,28.53
2023-02-08T14:59:42.651Z,32.75
2023-02-08T15:05:35.276Z,33.30
2023-02-08T15:08:12.613Z,34.05
2023-02-08T15:10:48.512Z,32.35
2023-02-08T15:13:35.970Z,33.33
2023-02-08T15:16:21.456Z,31.33
2023-02-08T15:18:57.584Z,36.05
2023-02-08T15:24:43.247Z,32.00
2023-02-08T15:27:31.309Z,36.23
2023-02-08T15:33:07.801Z,36.05
2023-02-08T15:35:53.557Z,35.60
2023-02-08T15:38:36.304Z,40.10
2023-02-08T15:41:13.870Z,42.00
2023-02-08T15:44:07.291Z,35.33
2023-02-08T15:46:46.739Z,41.22
2023-02-08T15:52:24.164Z,45.03
2023-02-08T15:58:02.988Z,37.40
2023-02-08T16:00:40.526Z,37.95
2023-02-08T16:03:24.642Z,37.90
2023-02-08T16:06:05.924Z,43.83
2023-02-08T16:08:44.873Z,58.30
2023-02-08T16:17:30.380Z,101.95
2023-02-08T16:42:14.570Z,170.20
2023-02-08T16:45:17.213Z,133.60
2023-02-08T16:48:18.552Z,75.22
2023-02-08T17:09:54.501Z,42.63
2023-02-08T17:15:46.799Z,41.22
2023-02-08T17:18:25.791Z,42.72
2023-02-08T17:21:05.428Z,41.80
2023-02-08T17:23:41.092Z,42.05
2023-02-08T17:26:29.994Z,42.70
2023-02-08T17:29:18.476Z,42.72
2023-02-08T17:31:57.751Z,44.95
2023-02-08T17:34:42.375Z,49.00
2023-02-08T17:37:22.714Z,47.30
2023-02-08T17:40:00.462Z,45.90
2023-02-08T17:42:42.962Z,46.83
2023-02-08T17:45:23.535Z,44.97
2023-02-08T17:48:03.706Z,42.65
2023-02-08T17:50:39.403Z,41.13
2023-02-08T17:53:17.087Z,42.20
2023-02-08T17:55:54.394Z,41.20
2023-02-08T17:58:38.979Z,40.67
2023-02-08T18:01:19.449Z,41.90
2023-02-08T18:03:55.204Z,42.20
2023-02-08T18:06:46.256Z,40.50
2023-02-08T18:09:24.794Z,40.07
2023-02-08T18:12:08.288Z,38.63
2023-02-08T18:14:57.658Z,40.75
2023-02-08T18:17:37.868Z,40.17
2023-02-08T18:20:15.223Z,39.00
2023-02-08T18:22:52.236Z,41.85
2023-02-08T18:25:30.579Z,43.00
2023-02-08T18:28:15.496Z,40.78
2023-02-08T18:30:56.817Z,40.40
2023-02-08T18:33:43.492Z,38.63
2023-02-08T18:38:56.258Z,38.92
2023-02-08T18:41:34.271Z,43.80
2023-02-08T18:44:13.422Z,41.67
2023-02-08T18:46:55.744Z,40.50
2023-02-08T18:49:33.004Z,42.20
2023-02-08T18:52:08.964Z,44.05
2023-02-08T18:54:46.404Z,41.00
2023-02-08T18:57:22.066Z,39.47
2023-02-08T18:59:59.071Z,41.60
2023-02-08T19:02:40.519Z,40.35
2023-02-08T19:05:16.747Z,40.10
2023-02-08T19:07:53.732Z,42.20
2023-02-08T19:10:29.490Z,43.60
2023-02-08T19:13:08.302Z,42.90
2023-02-08T19:15:45.861Z,43.63
2023-02-08T19:18:25.740Z,44.20
2023-02-08T19:21:09.651Z,43.88
2023-02-08T19:23:45.452Z,43.42
2023-02-08T19:26:25.934Z,39.95
2023-02-08T19:29:04.456Z,44.30
2023-02-08T19:31:43.843Z,42.30
2023-02-08T19:34:20.200Z,46.53
2023-02-08T19:37:02.767Z,46.10
2023-02-08T19:40:08.441Z,91.95
2023-02-08T19:42:47.291Z,128.60
2023-02-08T19:45:26.382Z,74.25
2023-02-08T19:48:03.355Z,54.10
2023-02-08T19:50:48.006Z,51.50
2023-02-08T19:53:30.665Z,47.47
2023-02-08T19:56:13.973Z,44.90
2023-02-08T19:58:54.486Z,43.88
2023-02-08T20:01:41.340Z,46.85
2023-02-08T20:04:18.146Z,44.00
2023-02-08T20:09:55.713Z,47.25
2023-02-08T20:12:41.301Z,52.78
2023-02-08T20:15:18.017Z,54.45
2023-02-08T20:18:04.981Z,48.63
2023-02-08T20:20:48.202Z,48.05
2023-02-08T20:23:29.216Z,49.05
2023-02-08T20:26:13.459Z,46.65
2023-02-08T20:28:51.778Z,44.30
2023-02-08T20:31:29.776Z,47.95
2023-02-08T20:34:13.474Z,50.33
2023-02-08T20:37:06.483Z,53.05
2023-02-08T20:39:49.079Z,47.53
2023-02-08T20:42:33.674Z,46.38
2023-02-08T20:45:15.407Z,45.50
2023-02-08T20:47:52.311Z,47.80
2023-02-08T20:50:34.492Z,48.60
2023-02-08T20:53:12.674Z,46.20
2023-02-08T20:59:25.804Z,44.92
2023-02-08T21:02:00.784Z,48.10
2023-02-08T21:04:36.008Z,47.55
2023-02-08T21:07:10.887Z,48.08
2023-02-08T21:09:45.933Z,46.03
2023-02-08T21:12:23.348Z,47.90
2023-02-08T21:15:01.462Z,46.63
2023-02-08T21:17:39.346Z,44.97
2023-02-08T21:20:16.369Z,50.10
2023-02-08T21:22:51.837Z,47.97
2023-02-08T21:25:26.587Z,46.40
2023-02-08T21:28:01.771Z,54.05
2023-02-08T21:30:46.298Z,50.23
2023-02-08T21:39:35.527Z,53.35
2023-02-08T21:42:17.458Z,52.38
2023-02-08T21:44:54.664Z,52.45
2023-02-08T21:47:33.784Z,53.90
2023-02-08T21:50:38.090Z,57.67
2023-02-08T21:53:47.136Z,54.95
2023-02-08T22:06:28.393Z,57.83
2023-02-08T22:09:16.287Z,58.25
2023-02-08T22:15:13.691Z,56.40
2023-02-08T22:24:31.449Z,61.45
2023-02-08T22:27:13.968Z,62.25
2023-02-08T22:30:04.751Z,64.33
2023-02-08T22:32:41.215Z,65.45
2023-02-08T22:35:27.046Z,68.87
2023-02-08T22:41:30.445Z,68.38
2023-02-08T22:44:46.746Z,63.30
2023-02-08T22:47:28.258Z,65.20
2023-02-08T22:50:06.912Z,64.90
2023-02-08T22:52:59.688Z,63.65
2023-02-08T22:55:52.284Z,62.90
2023-02-08T22:58:33.176Z,59.30
2023-02-08T23:01:22.153Z,61.55
2023-02-08T23:07:26.194Z,56.50
2023-02-08T23:10:13.352Z,52.22
2023-02-08T23:13:11.365Z,52.65
2023-02-08T23:16:05.674Z,49.80
2023-02-08T23:19:03.774Z,46.97
2023-02-08T23:21:47.609Z,49.95
2023-02-08T23:24:27.898Z,47.55
2023-02-08T23:29:51.938Z,49.70
2023-02-08T23:35:08.695Z,47.93
2023-02-08T23:37:45.617Z,47.25
2023-02-08T23:40:22.034Z,47.67
2023-02-08T23:42:56.142Z,51.00
2023-02-08T23:45:30.443Z,50.55
2023-02-08T23:48:03.690Z,49.33
2023-02-08T23:50:41.631Z,48.75
2023-02-08T23:53:16.595Z,46.20
2023-02-08T23:55:51.322Z,49.70
2023-02-08T23:58:27.216Z,45.83
